sensor_id;sensor_type;location;lat;lon;timestamp;P1;durP1;ratioP1;P2;durP2;ratioP2
26774;SDS011;14362;51.902;7.626;2023-05-07T00:02:22;10.10;;;7.47;;
26774;SDS011;14362;51.902;7.626;2023-05-07T00:06:25;8.73;;;7.57;;
26774;SDS011;14362;51.902;7.626;2023-05-07T00:10:28;8.48;;;7.70;;
26774;SDS011;14362;51.902;7.626;2023-05-07T00:14:30;8.82;;;7.93;;
26774;SDS011;14362;51.902;7.626;2023-05-07T00:18:31;8.85;;;7.95;;
26774;SDS011;14362;51.902;7.626;2023-05-07T00:22:34;8.00;;;7.20;;
26774;SDS011;14362;51.902;7.626;2023-05-07T00:26:36;8.48;;;7.68;;
26774;SDS011;14362;51.902;7.626;2023-05-07T00:30:37;8.35;;;7.55;;
26774;SDS011;14362;51.902;7.626;2023-05-07T00:34:39;7.72;;;7.03;;
26774;SDS011;14362;51.902;7.626;2023-05-07T00:38:41;8.15;;;7.35;;
26774;SDS011;14362;51.902;7.626;2023-05-07T00:42:43;9.95;;;7.82;;
26774;SDS011;14362;51.902;7.626;2023-05-07T00:46:46;7.35;;;6.65;;
26774;SDS011;14362;51.902;7.626;2023-05-07T00:50:50;7.53;;;6.82;;
26774;SDS011;14362;51.902;7.626;2023-05-07T00:54:53;7.80;;;7.03;;
26774;SDS011;14362;51.902;7.626;2023-05-07T00:58:55;7.53;;;6.82;;
26774;SDS011;14362;51.902;7.626;2023-05-07T01:02:56;8.23;;;7.45;;
26774;SDS011;14362;51.902;7.626;2023-05-07T01:06:58;7.93;;;7.20;;
26774;SDS011;14362;51.902;7.626;2023-05-07T01:11:03;8.20;;;6.25;;
26774;SDS011;14362;51.902;7.626;2023-05-07T01:15:05;7.15;;;6.55;;
26774;SDS011;14362;51.902;7.626;2023-05-07T01:19:09;7.78;;;7.07;;
26774;SDS011;14362;51.902;7.626;2023-05-07T01:27:16;7.45;;;6.75;;
26774;SDS011;14362;51.902;7.626;2023-05-07T01:31:17;8.00;;;7.20;;
26774;SDS011;14362;51.902;7.626;2023-05-07T01:35:20;10.23;;;7.13;;
26774;SDS011;14362;51.902;7.626;2023-05-07T01:39:25;7.93;;;7.15;;
26774;SDS011;14362;51.902;7.626;2023-05-07T01:43:28;8.80;;;7.47;;
26774;SDS011;14362;51.902;7.626;2023-05-07T01:47:31;9.30;;;8.40;;
26774;SDS011;14362;51.902;7.626;2023-05-07T01:51:33;10.77;;;9.68;;
26774;SDS011;14362;51.902;7.626;2023-05-07T01:55:36;12.95;;;11.50;;
26774;SDS011;14362;51.902;7.626;2023-05-07T01:59:38;12.63;;;11.32;;
26774;SDS011;14362;51.902;7.626;2023-05-07T02:03:39;15.05;;;13.55;;
26774;SDS011;14362;51.902;7.626;2023-05-07T02:07:41;15.82;;;14.30;;
26774;SDS011;14362;51.902;7.626;2023-05-07T02:11:44;16.52;;;14.88;;
26774;SDS011;14362;51.902;7.626;2023-05-07T02:15:45;15.60;;;14.10;;
26774;SDS011;14362;51.902;7.626;2023-05-07T02:19:50;17.17;;;15.48;;
26774;SDS011;14362;51.902;7.626;2023-05-07T02:23:51;18.08;;;16.27;;
26774;SDS011;14362;51.902;7.626;2023-05-07T02:27:54;18.70;;;16.73;;
26774;SDS011;14362;51.902;7.626;2023-05-07T02:31:55;17.45;;;15.70;;
26774;SDS011;14362;51.902;7.626;2023-05-07T02:35:59;19.50;;;16.35;;
26774;SDS011;14362;51.902;7.626;2023-05-07T02:40:07;18.13;;;16.17;;
26774;SDS011;14362;51.902;7.626;2023-05-07T02:44:10;18.48;;;16.67;;
26774;SDS011;14362;51.902;7.626;2023-05-07T02:48:12;19.02;;;17.13;;
26774;SDS011;14362;51.902;7.626;2023-05-07T02:52:13;20.00;;;17.98;;
26774;SDS011;14362;51.902;7.626;2023-05-07T02:56:15;21.33;;;19.08;;
26774;SDS011;14362;51.902;7.626;2023-05-07T03:00:18;20.85;;;17.60;;
26774;SDS011;14362;51.902;7.626;2023-05-07T03:04:21;20.45;;;18.48;;
26774;SDS011;14362;51.902;7.626;2023-05-07T03:08:22;21.92;;;19.45;;
26774;SDS011;14362;51.902;7.626;2023-05-07T03:12:24;21.55;;;19.48;;
26774;SDS011;14362;51.902;7.626;2023-05-07T03:16:27;21.85;;;19.75;;
26774;SDS011;14362;51.902;7.626;2023-05-07T03:20:28;21.35;;;19.30;;
26774;SDS011;14362;51.902;7.626;2023-05-07T03:24:30;21.05;;;18.98;;
26774;SDS011;14362;51.902;7.626;2023-05-07T03:28:31;21.25;;;19.17;;
26774;SDS011;14362;51.902;7.626;2023-05-07T03:32:34;21.30;;;19.27;;
26774;SDS011;14362;51.902;7.626;2023-05-07T03:36:37;22.73;;;19.70;;
26774;SDS011;14362;51.902;7.626;2023-05-07T03:40:38;21.40;;;19.40;;
26774;SDS011;14362;51.902;7.626;2023-05-07T03:44:39;22.75;;;20.55;;
26774;SDS011;14362;51.902;7.626;2023-05-07T03:48:42;22.55;;;19.77;;
26774;SDS011;14362;51.902;7.626;2023-05-07T03:52:44;22.23;;;20.02;;
26774;SDS011;14362;51.902;7.626;2023-05-07T03:56:45;23.08;;;19.08;;
26774;SDS011;14362;51.902;7.626;2023-05-07T04:00:47;22.38;;;19.70;;
26774;SDS011;14362;51.902;7.626;2023-05-07T04:04:50;22.77;;;20.60;;
26774;SDS011;14362;51.902;7.626;2023-05-07T04:08:51;23.52;;;20.20;;
26774;SDS011;14362;51.902;7.626;2023-05-07T04:12:52;21.63;;;19.42;;
26774;SDS011;14362;51.902;7.626;2023-05-07T04:16:54;26.65;;;19.98;;
26774;SDS011;14362;51.902;7.626;2023-05-07T04:20:57;23.25;;;20.85;;
26774;SDS011;14362;51.902;7.626;2023-05-07T04:24:58;23.23;;;20.15;;
26774;SDS011;14362;51.902;7.626;2023-05-07T04:29:00;23.58;;;21.27;;
26774;SDS011;14362;51.902;7.626;2023-05-07T04:33:01;23.25;;;20.48;;
26774;SDS011;14362;51.902;7.626;2023-05-07T04:37:04;23.85;;;21.50;;
26774;SDS011;14362;51.902;7.626;2023-05-07T04:41:06;22.85;;;20.40;;
26774;SDS011;14362;51.902;7.626;2023-05-07T04:45:08;22.98;;;20.52;;
26774;SDS011;14362;51.902;7.626;2023-05-07T04:49:10;22.02;;;19.67;;
26774;SDS011;14362;51.902;7.626;2023-05-07T04:53:13;24.33;;;21.88;;
26774;SDS011;14362;51.902;7.626;2023-05-07T04:57:14;23.05;;;20.70;;
26774;SDS011;14362;51.902;7.626;2023-05-07T05:01:17;23.85;;;21.55;;
26774;SDS011;14362;51.902;7.626;2023-05-07T05:05:18;23.63;;;19.50;;
26774;SDS011;14362;51.902;7.626;2023-05-07T05:09:21;22.75;;;20.27;;
26774;SDS011;14362;51.902;7.626;2023-05-07T05:13:23;23.42;;;21.13;;
26774;SDS011;14362;51.902;7.626;2023-05-07T05:17:24;24.58;;;20.67;;
26774;SDS011;14362;51.902;7.626;2023-05-07T05:21:26;22.75;;;20.35;;
26774;SDS011;14362;51.902;7.626;2023-05-07T05:25:29;21.20;;;18.90;;
26774;SDS011;14362;51.902;7.626;2023-05-07T05:29:30;23.08;;;20.73;;
26774;SDS011;14362;51.902;7.626;2023-05-07T05:33:32;21.48;;;19.27;;
26774;SDS011;14362;51.902;7.626;2023-05-07T05:37:33;21.85;;;19.65;;
26774;SDS011;14362;51.902;7.626;2023-05-07T05:41:36;23.10;;;20.55;;
26774;SDS011;14362;51.902;7.626;2023-05-07T05:45:37;23.60;;;20.95;;
26774;SDS011;14362;51.902;7.626;2023-05-07T05:49:39;21.58;;;19.42;;
26774;SDS011;14362;51.902;7.626;2023-05-07T05:53:40;23.75;;;21.25;;
26774;SDS011;14362;51.902;7.626;2023-05-07T05:57:43;23.70;;;21.17;;
26774;SDS011;14362;51.902;7.626;2023-05-07T06:01:45;24.35;;;21.85;;
26774;SDS011;14362;51.902;7.626;2023-05-07T06:05:46;24.05;;;20.83;;
26774;SDS011;14362;51.902;7.626;2023-05-07T06:09:48;23.92;;;21.23;;
26774;SDS011;14362;51.902;7.626;2023-05-07T06:13:50;23.83;;;21.42;;
26774;SDS011;14362;51.902;7.626;2023-05-07T06:17:52;24.25;;;21.65;;
26774;SDS011;14362;51.902;7.626;2023-05-07T06:21:55;22.48;;;20.23;;
26774;SDS011;14362;51.902;7.626;2023-05-07T06:25:57;22.20;;;20.00;;
26774;SDS011;14362;51.902;7.626;2023-05-07T06:30:00;22.88;;;20.15;;
26774;SDS011;14362;51.902;7.626;2023-05-07T06:34:01;24.02;;;20.80;;
26774;SDS011;14362;51.902;7.626;2023-05-07T06:38:03;23.77;;;21.38;;
26774;SDS011;14362;51.902;7.626;2023-05-07T06:42:04;22.40;;;20.10;;
26774;SDS011;14362;51.902;7.626;2023-05-07T06:46:07;24.55;;;20.90;;
26774;SDS011;14362;51.902;7.626;2023-05-07T06:50:08;22.63;;;20.33;;
26774;SDS011;14362;51.902;7.626;2023-05-07T06:54:10;22.58;;;20.17;;
26774;SDS011;14362;51.902;7.626;2023-05-07T06:58:12;23.58;;;21.13;;
26774;SDS011;14362;51.902;7.626;2023-05-07T07:02:15;23.15;;;20.15;;
26774;SDS011;14362;51.902;7.626;2023-05-07T07:06:16;23.85;;;21.38;;
26774;SDS011;14362;51.902;7.626;2023-05-07T07:10:18;24.08;;;21.58;;
26774;SDS011;14362;51.902;7.626;2023-05-07T07:14:19;23.83;;;21.40;;
26774;SDS011;14362;51.902;7.626;2023-05-07T07:18:22;23.70;;;21.40;;
26774;SDS011;14362;51.902;7.626;2023-05-07T07:22:24;23.80;;;21.40;;
26774;SDS011;14362;51.902;7.626;2023-05-07T07:26:25;25.58;;;22.02;;
26774;SDS011;14362;51.902;7.626;2023-05-07T07:30:27;23.75;;;21.42;;
26774;SDS011;14362;51.902;7.626;2023-05-07T07:34:30;24.10;;;21.52;;
26774;SDS011;14362;51.902;7.626;2023-05-07T07:38:31;24.00;;;21.60;;
26774;SDS011;14362;51.902;7.626;2023-05-07T07:42:33;24.60;;;21.95;;
26774;SDS011;14362;51.902;7.626;2023-05-07T07:46:34;24.83;;;21.83;;
26774;SDS011;14362;51.902;7.626;2023-05-07T07:50:37;24.77;;;22.10;;
26774;SDS011;14362;51.902;7.626;2023-05-07T07:54:39;25.15;;;22.35;;
26774;SDS011;14362;51.902;7.626;2023-05-07T07:58:40;24.70;;;22.02;;
26774;SDS011;14362;51.902;7.626;2023-05-07T08:02:41;23.50;;;21.00;;
26774;SDS011;14362;51.902;7.626;2023-05-07T08:06:44;22.83;;;20.48;;
26774;SDS011;14362;51.902;7.626;2023-05-07T08:10:46;22.45;;;20.15;;
26774;SDS011;14362;51.902;7.626;2023-05-07T08:14:49;22.42;;;20.13;;
26774;SDS011;14362;51.902;7.626;2023-05-07T08:18:51;22.95;;;20.60;;
26774;SDS011;14362;51.902;7.626;2023-05-07T08:22:54;22.80;;;20.42;;
26774;SDS011;14362;51.902;7.626;2023-05-07T08:26:55;23.08;;;20.58;;
26774;SDS011;14362;51.902;7.626;2023-05-07T08:30:57;22.17;;;19.80;;
26774;SDS011;14362;51.902;7.626;2023-05-07T08:35:00;22.25;;;19.95;;
26774;SDS011;14362;51.902;7.626;2023-05-07T08:39:03;22.05;;;19.95;;
26774;SDS011;14362;51.902;7.626;2023-05-07T08:43:05;20.05;;;17.95;;
26774;SDS011;14362;51.902;7.626;2023-05-07T08:47:07;21.92;;;19.73;;
26774;SDS011;14362;51.902;7.626;2023-05-07T08:51:12;20.10;;;18.10;;
26774;SDS011;14362;51.902;7.626;2023-05-07T08:59:16;21.02;;;18.88;;
26774;SDS011;14362;51.902;7.626;2023-05-07T09:03:18;20.33;;;18.23;;
26774;SDS011;14362;51.902;7.626;2023-05-07T09:07:19;20.83;;;18.65;;
26774;SDS011;14362;51.902;7.626;2023-05-07T09:11:22;19.75;;;17.75;;
26774;SDS011;14362;51.902;7.626;2023-05-07T09:15:25;20.07;;;17.90;;
26774;SDS011;14362;51.902;7.626;2023-05-07T09:19:27;19.95;;;17.23;;
26774;SDS011;14362;51.902;7.626;2023-05-07T09:23:28;20.13;;;18.08;;
26774;SDS011;14362;51.902;7.626;2023-05-07T09:27:31;18.63;;;16.63;;
26774;SDS011;14362;51.902;7.626;2023-05-07T09:31:35;21.00;;;18.80;;
26774;SDS011;14362;51.902;7.626;2023-05-07T09:39:39;19.77;;;17.77;;
26774;SDS011;14362;51.902;7.626;2023-05-07T09:43:43;18.38;;;16.63;;
26774;SDS011;14362;51.902;7.626;2023-05-07T09:47:44;18.38;;;16.58;;
26774;SDS011;14362;51.902;7.626;2023-05-07T09:51:48;19.48;;;17.58;;
26774;SDS011;14362;51.902;7.626;2023-05-07T09:55:51;18.08;;;16.27;;
26774;SDS011;14362;51.902;7.626;2023-05-07T09:59:55;18.90;;;16.90;;
26774;SDS011;14362;51.902;7.626;2023-05-07T10:03:57;17.73;;;15.40;;
26774;SDS011;14362;51.902;7.626;2023-05-07T10:08:00;18.52;;;16.63;;
26774;SDS011;14362;51.902;7.626;2023-05-07T10:12:02;18.20;;;16.15;;
26774;SDS011;14362;51.902;7.626;2023-05-07T10:16:05;18.17;;;15.93;;
26774;SDS011;14362;51.902;7.626;2023-05-07T10:20:07;17.02;;;15.38;;
26774;SDS011;14362;51.902;7.626;2023-05-07T10:24:10;17.38;;;15.60;;
26774;SDS011;14362;51.902;7.626;2023-05-07T10:28:17;16.00;;;14.50;;
26774;SDS011;14362;51.902;7.626;2023-05-07T10:32:30;14.95;;;13.45;;
26774;SDS011;14362;51.902;7.626;2023-05-07T10:36:41;16.65;;;14.95;;
26774;SDS011;14362;51.902;7.626;2023-05-07T10:40:43;15.30;;;13.73;;
26774;SDS011;14362;51.902;7.626;2023-05-07T10:44:45;15.27;;;13.80;;
26774;SDS011;14362;51.902;7.626;2023-05-07T10:53:23;14.60;;;13.25;;
26774;SDS011;14362;51.902;7.626;2023-05-07T10:57:33;14.02;;;12.55;;
26774;SDS011;14362;51.902;7.626;2023-05-07T11:01:49;13.82;;;12.20;;
26774;SDS011;14362;51.902;7.626;2023-05-07T11:06:12;12.82;;;11.52;;
26774;SDS011;14362;51.902;7.626;2023-05-07T11:10:15;12.98;;;11.77;;
26774;SDS011;14362;51.902;7.626;2023-05-07T11:18:47;13.77;;;12.40;;
26774;SDS011;14362;51.902;7.626;2023-05-07T11:22:53;16.10;;;12.10;;
26774;SDS011;14362;51.902;7.626;2023-05-07T11:26:57;11.65;;;10.55;;
26774;SDS011;14362;51.902;7.626;2023-05-07T11:31:02;11.60;;;10.10;;
26774;SDS011;14362;51.902;7.626;2023-05-07T11:35:04;11.43;;;10.30;;
26774;SDS011;14362;51.902;7.626;2023-05-07T11:43:32;11.63;;;10.52;;
26774;SDS011;14362;51.902;7.626;2023-05-07T11:47:35;12.60;;;11.25;;
26774;SDS011;14362;51.902;7.626;2023-05-07T11:51:37;11.63;;;10.55;;
26774;SDS011;14362;51.902;7.626;2023-05-07T11:55:42;11.23;;;10.13;;
26774;SDS011;14362;51.902;7.626;2023-05-07T11:59:43;11.05;;;9.95;;
26774;SDS011;14362;51.902;7.626;2023-05-07T12:03:45;10.88;;;9.75;;
26774;SDS011;14362;51.902;7.626;2023-05-07T12:07:47;10.38;;;9.25;;
26774;SDS011;14362;51.902;7.626;2023-05-07T12:11:49;9.75;;;8.70;;
26774;SDS011;14362;51.902;7.626;2023-05-07T12:15:53;11.05;;;9.82;;
26774;SDS011;14362;51.902;7.626;2023-05-07T12:19:55;9.25;;;8.15;;
26774;SDS011;14362;51.902;7.626;2023-05-07T12:23:56;11.43;;;9.82;;
26774;SDS011;14362;51.902;7.626;2023-05-07T12:28:01;10.00;;;8.38;;
26774;SDS011;14362;51.902;7.626;2023-05-07T12:32:05;10.23;;;8.98;;
26774;SDS011;14362;51.902;7.626;2023-05-07T12:36:07;9.63;;;8.73;;
26774;SDS011;14362;51.902;7.626;2023-05-07T12:40:09;9.90;;;8.90;;
26774;SDS011;14362;51.902;7.626;2023-05-07T12:44:13;11.18;;;9.80;;
26774;SDS011;14362;51.902;7.626;2023-05-07T12:48:16;9.15;;;8.35;;
26774;SDS011;14362;51.902;7.626;2023-05-07T12:52:18;9.75;;;8.85;;
26774;SDS011;14362;51.902;7.626;2023-05-07T12:56:20;8.45;;;7.65;;
26774;SDS011;14362;51.902;7.626;2023-05-07T13:00:33;8.85;;;7.95;;
26774;SDS011;14362;51.902;7.626;2023-05-07T13:04:35;9.20;;;7.60;;
26774;SDS011;14362;51.902;7.626;2023-05-07T13:08:38;9.70;;;7.70;;
26774;SDS011;14362;51.902;7.626;2023-05-07T13:12:41;8.15;;;7.45;;
26774;SDS011;14362;51.902;7.626;2023-05-07T13:16:44;9.38;;;7.95;;
26774;SDS011;14362;51.902;7.626;2023-05-07T13:20:45;8.95;;;8.05;;
26774;SDS011;14362;51.902;7.626;2023-05-07T13:24:47;8.20;;;7.40;;
26774;SDS011;14362;51.902;7.626;2023-05-07T13:28:48;8.23;;;7.43;;
26774;SDS011;14362;51.902;7.626;2023-05-07T13:32:51;9.15;;;8.07;;
26774;SDS011;14362;51.902;7.626;2023-05-07T13:36:53;9.18;;;8.23;;
26774;SDS011;14362;51.902;7.626;2023-05-07T13:40:55;8.88;;;8.02;;
26774;SDS011;14362;51.902;7.626;2023-05-07T13:44:56;8.15;;;7.35;;
26774;SDS011;14362;51.902;7.626;2023-05-07T13:48:59;8.57;;;7.75;;
26774;SDS011;14362;51.902;7.626;2023-05-07T13:53:00;8.35;;;7.65;;
26774;SDS011;14362;51.902;7.626;2023-05-07T13:57:02;9.80;;;8.80;;
26774;SDS011;14362;51.902;7.626;2023-05-07T14:01:03;10.95;;;9.85;;
26774;SDS011;14362;51.902;7.626;2023-05-07T14:05:06;9.10;;;8.20;;
26774;SDS011;14362;51.902;7.626;2023-05-07T14:09:09;9.20;;;7.90;;
26774;SDS011;14362;51.902;7.626;2023-05-07T14:13:13;8.88;;;7.97;;
26774;SDS011;14362;51.902;7.626;2023-05-07T14:17:14;8.32;;;7.50;;
26774;SDS011;14362;51.902;7.626;2023-05-07T14:21:17;8.65;;;7.82;;
26774;SDS011;14362;51.902;7.626;2023-05-07T14:25:19;8.57;;;7.50;;
26774;SDS011;14362;51.902;7.626;2023-05-07T14:29:20;8.57;;;7.10;;
26774;SDS011;14362;51.902;7.626;2023-05-07T14:33:22;8.02;;;7.22;;
26774;SDS011;14362;51.902;7.626;2023-05-07T14:37:25;7.95;;;7.25;;
26774;SDS011;14362;51.902;7.626;2023-05-07T14:41:26;7.32;;;6.63;;
26774;SDS011;14362;51.902;7.626;2023-05-07T14:45:27;8.25;;;7.50;;
26774;SDS011;14362;51.902;7.626;2023-05-07T14:49:29;8.60;;;7.80;;
26774;SDS011;14362;51.902;7.626;2023-05-07T14:53:32;11.25;;;7.97;;
26774;SDS011;14362;51.902;7.626;2023-05-07T14:57:33;7.03;;;6.38;;
26774;SDS011;14362;51.902;7.626;2023-05-07T15:01:35;8.40;;;7.45;;
26774;SDS011;14362;51.902;7.626;2023-05-07T15:05:37;8.05;;;7.22;;
26774;SDS011;14362;51.902;7.626;2023-05-07T15:09:40;8.02;;;7.25;;
26774;SDS011;14362;51.902;7.626;2023-05-07T15:13:41;6.95;;;6.35;;
26774;SDS011;14362;51.902;7.626;2023-05-07T15:17:43;8.02;;;6.28;;
26774;SDS011;14362;51.902;7.626;2023-05-07T15:21:44;7.40;;;6.70;;
26774;SDS011;14362;51.902;7.626;2023-05-07T15:25:47;6.18;;;5.55;;
26774;SDS011;14362;51.902;7.626;2023-05-07T15:29:49;6.20;;;5.55;;
26774;SDS011;14362;51.902;7.626;2023-05-07T15:33:50;6.28;;;5.78;;
26774;SDS011;14362;51.902;7.626;2023-05-07T15:37:52;5.90;;;5.30;;
26774;SDS011;14362;51.902;7.626;2023-05-07T15:41:55;6.78;;;6.10;;
26774;SDS011;14362;51.902;7.626;2023-05-07T15:45:57;6.20;;;5.60;;
26774;SDS011;14362;51.902;7.626;2023-05-07T15:50:00;6.22;;;5.63;;
26774;SDS011;14362;51.902;7.626;2023-05-07T15:54:01;8.70;;;5.82;;
26774;SDS011;14362;51.902;7.626;2023-05-07T15:58:04;9.07;;;6.05;;
26774;SDS011;14362;51.902;7.626;2023-05-07T16:02:06;5.70;;;5.15;;
26774;SDS011;14362;51.902;7.626;2023-05-07T16:06:08;5.55;;;5.00;;
26774;SDS011;14362;51.902;7.626;2023-05-07T16:10:10;6.75;;;6.13;;
26774;SDS011;14362;51.902;7.626;2023-05-07T16:14:13;5.85;;;5.35;;
26774;SDS011;14362;51.902;7.626;2023-05-07T16:18:15;6.43;;;5.72;;
26774;SDS011;14362;51.902;7.626;2023-05-07T16:22:16;5.60;;;5.10;;
26774;SDS011;14362;51.902;7.626;2023-05-07T16:26:18;6.20;;;5.53;;
26774;SDS011;14362;51.902;7.626;2023-05-07T16:30:20;6.07;;;5.40;;
26774;SDS011;14362;51.902;7.626;2023-05-07T16:34:22;6.38;;;5.75;;
26774;SDS011;14362;51.902;7.626;2023-05-07T16:38:23;6.32;;;5.72;;
26774;SDS011;14362;51.902;7.626;2023-05-07T16:42:26;6.13;;;5.45;;
26774;SDS011;14362;51.902;7.626;2023-05-07T16:46:29;6.05;;;5.00;;
26774;SDS011;14362;51.902;7.626;2023-05-07T16:50:30;7.70;;;6.93;;
26774;SDS011;14362;51.902;7.626;2023-05-07T16:54:32;6.20;;;5.60;;
26774;SDS011;14362;51.902;7.626;2023-05-07T16:58:35;5.45;;;4.95;;
26774;SDS011;14362;51.902;7.626;2023-05-07T17:02:38;5.63;;;5.05;;
26774;SDS011;14362;51.902;7.626;2023-05-07T17:06:39;6.13;;;5.53;;
26774;SDS011;14362;51.902;7.626;2023-05-07T17:10:41;6.18;;;5.60;;
26774;SDS011;14362;51.902;7.626;2023-05-07T17:14:42;6.35;;;5.38;;
26774;SDS011;14362;51.902;7.626;2023-05-07T17:18:45;6.00;;;5.50;;
26774;SDS011;14362;51.902;7.626;2023-05-07T17:22:46;5.78;;;5.28;;
26774;SDS011;14362;51.902;7.626;2023-05-07T17:26:48;6.70;;;6.00;;
26774;SDS011;14362;51.902;7.626;2023-05-07T17:30:49;6.07;;;5.47;;
26774;SDS011;14362;51.902;7.626;2023-05-07T17:34:52;7.13;;;6.43;;
26774;SDS011;14362;51.902;7.626;2023-05-07T17:38:54;8.98;;;6.90;;
26774;SDS011;14362;51.902;7.626;2023-05-07T17:42:55;6.95;;;6.25;;
26774;SDS011;14362;51.902;7.626;2023-05-07T17:46:57;7.30;;;6.43;;
26774;SDS011;14362;51.902;7.626;2023-05-07T17:51:02;6.53;;;5.80;;
26774;SDS011;14362;51.902;7.626;2023-05-07T17:55:04;7.20;;;6.53;;
26774;SDS011;14362;51.902;7.626;2023-05-07T17:59:06;6.75;;;6.15;;
26774;SDS011;14362;51.902;7.626;2023-05-07T18:03:08;7.78;;;7.07;;
26774;SDS011;14362;51.902;7.626;2023-05-07T18:07:11;9.25;;;7.88;;
26774;SDS011;14362;51.902;7.626;2023-05-07T18:11:12;9.38;;;8.18;;
26774;SDS011;14362;51.902;7.626;2023-05-07T18:15:14;9.52;;;8.63;;
26774;SDS011;14362;51.902;7.626;2023-05-07T18:19:15;7.90;;;7.10;;
26774;SDS011;14362;51.902;7.626;2023-05-07T18:23:18;9.15;;;8.30;;
26774;SDS011;14362;51.902;7.626;2023-05-07T18:27:19;9.05;;;7.97;;
26774;SDS011;14362;51.902;7.626;2023-05-07T18:31:21;9.77;;;8.60;;
26774;SDS011;14362;51.902;7.626;2023-05-07T18:35:23;10.18;;;8.25;;
26774;SDS011;14362;51.902;7.626;2023-05-07T18:39:25;9.23;;;8.32;;
26774;SDS011;14362;51.902;7.626;2023-05-07T18:43:27;9.43;;;8.52;;
26774;SDS011;14362;51.902;7.626;2023-05-07T18:47:28;9.30;;;8.40;;
26774;SDS011;14362;51.902;7.626;2023-05-07T18:51:30;9.60;;;8.60;;
26774;SDS011;14362;51.902;7.626;2023-05-07T18:55:33;9.73;;;8.82;;
26774;SDS011;14362;51.902;7.626;2023-05-07T18:59:34;9.32;;;8.45;;
26774;SDS011;14362;51.902;7.626;2023-05-07T19:03:36;10.32;;;9.27;;
26774;SDS011;14362;51.902;7.626;2023-05-07T19:07:37;10.98;;;9.07;;
26774;SDS011;14362;51.902;7.626;2023-05-07T19:11:40;9.45;;;8.55;;
26774;SDS011;14362;51.902;7.626;2023-05-07T19:15:41;9.30;;;8.45;;
26774;SDS011;14362;51.902;7.626;2023-05-07T19:19:43;9.65;;;8.75;;
26774;SDS011;14362;51.902;7.626;2023-05-07T19:27:53;11.75;;;10.35;;
26774;SDS011;14362;51.902;7.626;2023-05-07T19:31:56;10.47;;;9.50;;
26774;SDS011;14362;51.902;7.626;2023-05-07T19:35:57;10.32;;;9.43;;
26774;SDS011;14362;51.902;7.626;2023-05-07T19:40:00;11.35;;;10.35;;
26774;SDS011;14362;51.902;7.626;2023-05-07T19:44:05;10.77;;;9.77;;
26774;SDS011;14362;51.902;7.626;2023-05-07T19:48:06;11.57;;;10.50;;
26774;SDS011;14362;51.902;7.626;2023-05-07T19:52:08;11.15;;;10.00;;
26774;SDS011;14362;51.902;7.626;2023-05-07T19:56:10;11.20;;;10.20;;
26774;SDS011;14362;51.902;7.626;2023-05-07T20:00:15;12.13;;;11.02;;
26774;SDS011;14362;51.902;7.626;2023-05-07T20:04:16;12.35;;;11.25;;
26774;SDS011;14362;51.902;7.626;2023-05-07T20:08:18;12.00;;;10.90;;
26774;SDS011;14362;51.902;7.626;2023-05-07T20:12:19;11.90;;;10.75;;
26774;SDS011;14362;51.902;7.626;2023-05-07T20:16:22;12.02;;;11.02;;
26774;SDS011;14362;51.902;7.626;2023-05-07T20:20:24;12.18;;;11.02;;
26774;SDS011;14362;51.902;7.626;2023-05-07T20:24:25;12.35;;;11.30;;
26774;SDS011;14362;51.902;7.626;2023-05-07T20:28:27;12.60;;;11.50;;
26774;SDS011;14362;51.902;7.626;2023-05-07T20:32:30;12.52;;;11.43;;
26774;SDS011;14362;51.902;7.626;2023-05-07T20:36:31;12.32;;;10.93;;
26774;SDS011;14362;51.902;7.626;2023-05-07T20:40:32;12.18;;;11.13;;
26774;SDS011;14362;51.902;7.626;2023-05-07T20:44:36;12.73;;;11.52;;
26774;SDS011;14362;51.902;7.626;2023-05-07T20:48:39;12.63;;;11.32;;
26774;SDS011;14362;51.902;7.626;2023-05-07T20:52:40;11.80;;;10.80;;
26774;SDS011;14362;51.902;7.626;2023-05-07T20:56:42;12.40;;;11.15;;
26774;SDS011;14362;51.902;7.626;2023-05-07T21:00:44;11.98;;;10.77;;
26774;SDS011;14362;51.902;7.626;2023-05-07T21:04:46;12.57;;;10.60;;
26774;SDS011;14362;51.902;7.626;2023-05-07T21:08:52;11.85;;;10.80;;
26774;SDS011;14362;51.902;7.626;2023-05-07T21:12:53;11.95;;;10.70;;
26774;SDS011;14362;51.902;7.626;2023-05-07T21:16:55;11.73;;;10.63;;
26774;SDS011;14362;51.902;7.626;2023-05-07T21:20:59;11.55;;;10.40;;
26774;SDS011;14362;51.902;7.626;2023-05-07T21:25:01;11.13;;;10.23;;
26774;SDS011;14362;51.902;7.626;2023-05-07T21:29:02;11.40;;;10.40;;
26774;SDS011;14362;51.902;7.626;2023-05-07T21:33:04;10.93;;;10.02;;
26774;SDS011;14362;51.902;7.626;2023-05-07T21:37:07;11.07;;;10.13;;
26774;SDS011;14362;51.902;7.626;2023-05-07T21:41:08;11.40;;;10.40;;
26774;SDS011;14362;51.902;7.626;2023-05-07T21:45:11;11.05;;;10.05;;
26774;SDS011;14362;51.902;7.626;2023-05-07T21:49:13;11.23;;;10.05;;
26774;SDS011;14362;51.902;7.626;2023-05-07T21:53:15;10.23;;;9.32;;
26774;SDS011;14362;51.902;7.626;2023-05-07T21:57:17;11.05;;;9.95;;
26774;SDS011;14362;51.902;7.626;2023-05-07T22:01:18;10.48;;;9.68;;
26774;SDS011;14362;51.902;7.626;2023-05-07T22:05:20;10.95;;;9.85;;
26774;SDS011;14362;51.902;7.626;2023-05-07T22:09:22;10.77;;;9.93;;
26774;SDS011;14362;51.902;7.626;2023-05-07T22:13:24;10.77;;;9.88;;
26774;SDS011;14362;51.902;7.626;2023-05-07T22:17:25;9.73;;;8.93;;
26774;SDS011;14362;51.902;7.626;2023-05-07T22:21:27;10.63;;;9.73;;
26774;SDS011;14362;51.902;7.626;2023-05-07T22:25:30;10.15;;;9.35;;
26774;SDS011;14362;51.902;7.626;2023-05-07T22:33:34;10.27;;;9.43;;
26774;SDS011;14362;51.902;7.626;2023-05-07T22:37:35;10.57;;;9.68;;
26774;SDS011;14362;51.902;7.626;2023-05-07T22:41:38;10.75;;;9.85;;
26774;SDS011;14362;51.902;7.626;2023-05-07T22:45:40;10.48;;;9.60;;
26774;SDS011;14362;51.902;7.626;2023-05-07T22:49:41;10.15;;;9.15;;
26774;SDS011;14362;51.902;7.626;2023-05-07T22:53:42;10.95;;;10.05;;
26774;SDS011;14362;51.902;7.626;2023-05-07T22:57:46;10.25;;;9.45;;
26774;SDS011;14362;51.902;7.626;2023-05-07T23:01:48;10.93;;;10.02;;
26774;SDS011;14362;51.902;7.626;2023-05-07T23:05:51;11.20;;;10.20;;
26774;SDS011;14362;51.902;7.626;2023-05-07T23:09:52;10.52;;;9.70;;
26774;SDS011;14362;51.902;7.626;2023-05-07T23:13:55;10.30;;;9.48;;
26774;SDS011;14362;51.902;7.626;2023-05-07T23:17:56;10.32;;;9.48;;
26774;SDS011;14362;51.902;7.626;2023-05-07T23:21:58;10.23;;;9.32;;
26774;SDS011;14362;51.902;7.626;2023-05-07T23:25:59;10.32;;;9.35;;
26774;SDS011;14362;51.902;7.626;2023-05-07T23:30:03;9.80;;;9.00;;
26774;SDS011;14362;51.902;7.626;2023-05-07T23:34:05;14.93;;;9.32;;
26774;SDS011;14362;51.902;7.626;2023-05-07T23:38:06;9.00;;;8.30;;
26774;SDS011;14362;51.902;7.626;2023-05-07T23:42:07;9.73;;;8.82;;
26774;SDS011;14362;51.902;7.626;2023-05-07T23:46:11;9.35;;;8.65;;
26774;SDS011;14362;51.902;7.626;2023-05-07T23:50:12;10.13;;;9.30;;
26774;SDS011;14362;51.902;7.626;2023-05-07T23:54:14;10.18;;;9.38;;
26774;SDS011;14362;51.902;7.626;2023-05-07T23:58:15;12.75;;;9.02;;
